createdAt,value
2019-01-04T00:01:52.805Z,6.03
2019-01-04T00:04:21.235Z,5.97
2019-01-04T00:06:49.706Z,9.50
2019-01-04T00:09:18.138Z,5.17
2019-01-04T00:11:46.624Z,8.33
2019-01-04T00:14:15.131Z,7.77
2019-01-04T00:16:43.567Z,8.13
2019-01-04T00:19:12.022Z,6.67
2019-01-04T00:21:40.471Z,7.13
2019-01-04T00:24:08.924Z,7.43
2019-01-04T00:26:37.347Z,8.47
2019-01-04T00:29:05.812Z,5.43
2019-01-04T00:31:34.281Z,5.57
2019-01-04T00:34:02.747Z,6.47
2019-01-04T00:36:31.266Z,5.83
2019-01-04T00:38:59.719Z,6.80
2019-01-04T00:41:28.161Z,4.33
2019-01-04T00:43:56.614Z,5.03
2019-01-04T00:46:25.062Z,7.33
2019-01-04T00:48:53.674Z,7.07
2019-01-04T00:51:22.114Z,12.57
2019-01-04T00:53:50.562Z,5.53
2019-01-04T00:56:27.977Z,8.17
2019-01-04T00:59:32.183Z,7.97
2019-01-04T01:02:19.842Z,8.97
2019-01-04T01:05:02.498Z,7.13
2019-01-04T01:07:39.724Z,6.47
2019-01-04T01:10:20.010Z,5.30
2019-01-04T01:13:11.581Z,5.17
2019-01-04T01:16:05.507Z,6.23
2019-01-04T01:18:37.030Z,7.50
2019-01-04T01:21:39.824Z,9.40
2019-01-04T01:24:44.228Z,7.97
2019-01-04T01:27:21.594Z,6.33
2019-01-04T01:29:58.819Z,6.30
2019-01-04T01:32:45.178Z,5.57
2019-01-04T01:35:39.170Z,4.73
2019-01-04T01:38:31.350Z,9.13
2019-01-04T01:41:19.127Z,7.97
2019-01-04T01:43:59.186Z,5.37
2019-01-04T01:46:33.363Z,5.57
2019-01-04T01:49:04.892Z,7.10
2019-01-04T01:51:38.922Z,6.40
2019-01-04T01:54:07.383Z,8.53
2019-01-04T01:56:35.821Z,5.83
2019-01-04T01:59:04.460Z,7.20
2019-01-04T02:01:32.901Z,9.80
2019-01-04T02:04:01.332Z,8.73
2019-01-04T02:06:29.785Z,9.90
2019-01-04T02:08:58.210Z,9.53
2019-01-04T02:11:26.669Z,11.17
2019-01-04T02:13:55.108Z,11.90
2019-01-04T02:16:23.554Z,11.47
2019-01-04T02:18:51.982Z,11.97
2019-01-04T02:21:20.433Z,9.00
2019-01-04T02:23:48.874Z,10.57
2019-01-04T02:26:17.334Z,12.70
2019-01-04T02:28:45.761Z,10.93
2019-01-04T02:31:14.219Z,10.07
2019-01-04T02:33:42.652Z,8.43
2019-01-04T02:36:11.130Z,9.43
2019-01-04T02:38:39.566Z,11.27
2019-01-04T02:41:08.023Z,11.60
2019-01-04T02:43:36.454Z,11.80
2019-01-04T02:46:04.908Z,13.90
2019-01-04T02:48:33.351Z,11.83
2019-01-04T02:51:01.806Z,15.17
2019-01-04T02:53:30.263Z,13.70
2019-01-04T02:55:58.779Z,17.07
2019-01-04T02:58:27.231Z,12.33
2019-01-04T03:00:55.729Z,12.93
2019-01-04T03:03:24.170Z,10.97
2019-01-04T03:05:52.648Z,11.30
2019-01-04T03:08:21.089Z,15.13
2019-01-04T03:10:49.557Z,11.30
2019-01-04T03:13:17.989Z,16.40
2019-01-04T03:15:46.426Z,17.40
2019-01-04T03:18:14.968Z,14.40
2019-01-04T03:20:43.407Z,14.73
2019-01-04T03:23:11.864Z,14.17
2019-01-04T03:25:40.303Z,18.73
2019-01-04T03:28:08.767Z,14.57
2019-01-04T03:30:37.208Z,14.97
2019-01-04T03:33:05.672Z,14.80
2019-01-04T03:35:34.129Z,16.10
2019-01-04T03:38:02.585Z,16.80
2019-01-04T03:40:31.082Z,18.63
2019-01-04T03:42:59.542Z,17.13
2019-01-04T03:45:27.987Z,14.93
2019-01-04T03:47:56.441Z,17.20
2019-01-04T03:50:24.875Z,17.73
2019-01-04T03:52:53.345Z,17.00
2019-01-04T03:55:21.782Z,18.73
2019-01-04T03:57:50.237Z,19.77
2019-01-04T04:00:18.679Z,16.83
2019-01-04T04:02:47.149Z,19.63
2019-01-04T04:05:15.580Z,15.23
2019-01-04T04:07:44.037Z,17.40
2019-01-04T04:10:12.471Z,17.73
2019-01-04T04:12:40.929Z,14.43
2019-01-04T04:15:09.444Z,17.63
2019-01-04T04:17:37.901Z,17.33
2019-01-04T04:20:07.398Z,16.07
2019-01-04T04:22:35.849Z,16.10
2019-01-04T04:25:05.830Z,13.10
2019-01-04T04:27:34.258Z,18.33
2019-01-04T04:30:02.710Z,19.23
2019-01-04T04:32:31.212Z,24.00
2019-01-04T04:34:59.742Z,19.60
2019-01-04T04:37:28.179Z,21.57
2019-01-04T04:39:56.632Z,23.07
2019-01-04T04:42:25.074Z,22.83
2019-01-04T04:44:53.537Z,25.47
2019-01-04T04:47:21.985Z,25.00
2019-01-04T04:49:50.460Z,21.07
2019-01-04T04:52:18.898Z,25.33
2019-01-04T04:54:47.347Z,25.07
2019-01-04T04:57:15.790Z,25.70
2019-01-04T04:59:44.246Z,22.97
2019-01-04T05:02:12.691Z,23.47
2019-01-04T05:04:41.151Z,30.50
2019-01-04T05:07:09.592Z,28.73
2019-01-04T05:09:38.055Z,26.30
2019-01-04T05:12:06.500Z,25.47
2019-01-04T05:14:34.950Z,27.80
2019-01-04T05:17:03.405Z,25.93
2019-01-04T05:19:31.920Z,25.67
2019-01-04T05:22:00.435Z,23.37
2019-01-04T05:24:28.897Z,28.93
2019-01-04T05:26:57.355Z,25.33
2019-01-04T05:29:25.803Z,23.30
2019-01-04T05:31:54.266Z,24.20
2019-01-04T05:34:22.726Z,23.07
2019-01-04T05:36:51.214Z,22.40
2019-01-04T05:39:19.663Z,21.17
2019-01-04T05:41:48.118Z,24.13
2019-01-04T05:44:16.563Z,23.40
2019-01-04T05:46:45.018Z,23.90
2019-01-04T05:49:13.476Z,19.93
2019-01-04T05:51:41.948Z,20.33
2019-01-04T05:54:10.377Z,25.13
2019-01-04T05:56:38.841Z,22.47
2019-01-04T05:59:07.295Z,20.37
2019-01-04T06:01:35.814Z,22.10
2019-01-04T06:04:04.249Z,23.50
2019-01-04T06:06:32.714Z,22.00
2019-01-04T06:09:01.154Z,23.87
2019-01-04T06:11:29.615Z,22.17
2019-01-04T06:13:58.066Z,19.70
2019-01-04T06:16:26.515Z,21.53
2019-01-04T06:18:54.977Z,22.67
2019-01-04T06:21:23.413Z,24.23
2019-01-04T06:23:51.870Z,26.27
2019-01-04T06:26:20.310Z,19.53
2019-01-04T06:28:48.768Z,23.00
2019-01-04T06:31:17.217Z,21.40
2019-01-04T06:33:45.678Z,22.37
2019-01-04T06:36:14.121Z,21.73
2019-01-04T06:38:42.589Z,26.80
2019-01-04T06:41:11.026Z,23.40
2019-01-04T06:43:39.494Z,25.60
2019-01-04T06:46:07.932Z,24.23
2019-01-04T06:48:36.379Z,25.13
2019-01-04T06:51:04.820Z,29.87
2019-01-04T06:53:33.270Z,25.47
2019-01-04T06:56:01.719Z,24.80
2019-01-04T06:58:30.179Z,24.57
2019-01-04T07:00:58.615Z,27.63
2019-01-04T07:03:27.076Z,25.93
2019-01-04T07:05:55.521Z,23.83
2019-01-04T07:08:23.973Z,27.27
2019-01-04T07:10:52.416Z,29.53
2019-01-04T07:13:20.874Z,30.07
2019-01-04T07:15:49.313Z,30.50
2019-01-04T07:18:17.805Z,31.63
2019-01-04T07:20:46.277Z,30.20
2019-01-04T07:23:14.789Z,27.17
2019-01-04T07:25:43.237Z,32.33
2019-01-04T07:28:11.682Z,32.50
2019-01-04T07:30:40.205Z,32.23
2019-01-04T07:33:08.685Z,31.37
2019-01-04T07:35:37.151Z,32.83
2019-01-04T07:38:05.609Z,33.60
2019-01-04T07:40:34.083Z,31.80
2019-01-04T07:43:02.536Z,29.23
2019-01-04T07:45:31.034Z,36.30
2019-01-04T07:47:59.452Z,29.80
2019-01-04T07:50:27.934Z,32.60
2019-01-04T07:52:56.388Z,30.93
2019-01-04T07:55:24.922Z,34.33
2019-01-04T07:57:53.487Z,29.87
2019-01-04T08:00:21.970Z,34.83
2019-01-04T08:02:50.411Z,29.83
2019-01-04T08:05:19.443Z,31.80
2019-01-04T08:07:47.885Z,26.47
2019-01-04T08:10:16.344Z,30.43
2019-01-04T08:12:47.598Z,30.80
2019-01-04T08:15:16.052Z,30.00
2019-01-04T08:17:44.500Z,34.63
2019-01-04T08:20:13.013Z,30.60
2019-01-04T08:22:41.456Z,32.07
2019-01-04T08:25:09.901Z,30.50
2019-01-04T08:27:38.348Z,28.40
2019-01-04T08:30:09.630Z,27.07
2019-01-04T08:32:38.088Z,27.47
2019-01-04T08:35:06.593Z,28.67
2019-01-04T08:37:35.078Z,28.40
2019-01-04T08:40:03.795Z,29.60
2019-01-04T08:42:32.258Z,26.53
2019-01-04T08:45:00.698Z,26.17
2019-01-04T08:47:29.176Z,25.67
2019-01-04T08:49:57.616Z,27.13
2019-01-04T08:52:26.099Z,25.63
2019-01-04T08:54:54.530Z,28.10
2019-01-04T08:57:22.993Z,31.57
2019-01-04T08:59:51.438Z,22.43
2019-01-04T09:02:19.886Z,23.17
2019-01-04T09:04:48.322Z,22.50
2019-01-04T09:07:16.781Z,21.53
2019-01-04T09:09:45.205Z,23.90
2019-01-04T09:12:13.680Z,20.83
2019-01-04T09:14:42.182Z,25.13
2019-01-04T09:17:10.735Z,22.17
2019-01-04T09:19:39.248Z,25.13
2019-01-04T09:22:07.715Z,26.50
2019-01-04T09:24:36.220Z,23.63
2019-01-04T09:27:04.756Z,25.00
2019-01-04T09:29:33.206Z,28.87
2019-01-04T09:32:01.713Z,28.37
2019-01-04T09:34:30.166Z,24.47
2019-01-04T09:36:58.604Z,25.63
2019-01-04T09:39:27.801Z,24.27
2019-01-04T09:41:56.933Z,21.27
2019-01-04T09:44:25.432Z,19.43
2019-01-04T09:46:53.953Z,24.47
2019-01-04T09:49:22.408Z,23.57
2019-01-04T09:51:50.838Z,26.37
2019-01-04T09:54:19.311Z,25.17
2019-01-04T09:56:47.772Z,23.83
2019-01-04T09:59:16.238Z,20.77
2019-01-04T10:01:44.680Z,19.80
2019-01-04T10:04:13.153Z,22.07
2019-01-04T10:06:41.589Z,24.77
2019-01-04T10:09:10.051Z,20.60
2019-01-04T10:11:38.544Z,23.70
2019-01-04T10:14:07.056Z,22.97
2019-01-04T10:16:35.508Z,22.60
2019-01-04T10:19:04.033Z,22.57
2019-01-04T10:21:32.473Z,22.33
2019-01-04T10:24:00.939Z,21.17
2019-01-04T10:26:29.375Z,23.77
2019-01-04T10:28:57.841Z,18.57
2019-01-04T10:31:26.292Z,21.80
2019-01-04T10:33:54.764Z,22.87
2019-01-04T10:36:23.232Z,24.40
2019-01-04T10:38:51.757Z,17.90
2019-01-04T10:41:20.211Z,19.93
2019-01-04T10:43:48.660Z,20.77
2019-01-04T10:46:17.117Z,25.37
2019-01-04T10:48:45.555Z,21.63
2019-01-04T10:51:14.005Z,19.90
2019-01-04T10:53:42.441Z,17.87
2019-01-04T10:56:10.898Z,22.67
2019-01-04T10:58:39.338Z,21.27
2019-01-04T11:01:07.967Z,19.60
2019-01-04T11:03:36.415Z,17.00
2019-01-04T11:06:04.870Z,16.63
2019-01-04T11:08:33.319Z,15.90
2019-01-04T11:11:01.807Z,15.20
2019-01-04T11:13:30.261Z,15.13
2019-01-04T11:15:58.709Z,16.50
2019-01-04T11:18:27.146Z,16.43
2019-01-04T11:20:56.743Z,14.53
2019-01-04T11:23:53.438Z,14.37
2019-01-04T11:26:25.310Z,14.90
2019-01-04T11:29:08.425Z,14.37
2019-01-04T11:31:48.979Z,16.33
2019-01-04T11:34:38.014Z,20.30
2019-01-04T11:37:18.255Z,15.97
2019-01-04T11:40:09.269Z,13.17
2019-01-04T11:42:43.501Z,15.30
2019-01-04T11:45:23.606Z,13.73
2019-01-04T11:48:06.875Z,15.77
2019-01-04T11:50:50.289Z,17.20
2019-01-04T11:53:18.724Z,14.30
2019-01-04T11:55:47.172Z,12.83
2019-01-04T11:58:15.625Z,14.00
2019-01-04T12:00:44.091Z,14.20
2019-01-04T12:03:12.613Z,11.90
2019-01-04T12:05:41.043Z,11.07
2019-01-04T12:08:09.501Z,13.10
2019-01-04T12:10:37.948Z,10.47
2019-01-04T12:13:06.402Z,11.77
2019-01-04T12:15:34.861Z,10.67
2019-01-04T12:18:03.395Z,11.43
2019-01-04T12:20:31.850Z,9.93
2019-01-04T12:23:00.365Z,12.40
2019-01-04T12:25:28.805Z,9.87
2019-01-04T12:27:57.237Z,13.73
2019-01-04T12:30:25.697Z,9.17
2019-01-04T12:32:54.241Z,11.00
2019-01-04T12:35:22.666Z,8.93
2019-01-04T12:37:51.105Z,9.87
2019-01-04T12:40:19.544Z,10.33
2019-01-04T12:42:48.002Z,10.50
2019-01-04T12:45:16.441Z,10.37
2019-01-04T12:47:44.895Z,10.50
2019-01-04T12:50:13.345Z,9.70
2019-01-04T12:52:41.807Z,9.93
2019-01-04T12:55:10.311Z,8.53
2019-01-04T12:57:38.756Z,10.13
2019-01-04T13:00:10.896Z,8.90
2019-01-04T13:02:39.326Z,7.97
2019-01-04T13:05:07.910Z,9.47
2019-01-04T13:07:36.338Z,9.97
2019-01-04T13:10:05.129Z,10.33
2019-01-04T13:12:33.556Z,9.20
2019-01-04T13:15:02.019Z,10.23
2019-01-04T13:17:30.447Z,10.67
2019-01-04T13:19:58.895Z,10.50
2019-01-04T13:22:27.330Z,9.73
2019-01-04T13:24:55.806Z,8.70
2019-01-04T13:27:24.308Z,9.27
2019-01-04T13:29:52.767Z,11.70
2019-01-04T13:32:21.214Z,9.03
2019-01-04T13:34:49.689Z,10.23
2019-01-04T13:37:18.139Z,10.87
2019-01-04T13:39:46.588Z,8.37
2019-01-04T13:42:15.030Z,11.07
2019-01-04T13:44:43.475Z,8.00
2019-01-04T13:47:11.917Z,12.70
2019-01-04T13:49:40.367Z,9.07
2019-01-04T13:52:08.798Z,9.13
2019-01-04T13:54:37.227Z,9.73
2019-01-04T13:57:05.736Z,9.70
2019-01-04T13:59:34.169Z,7.33
2019-01-04T14:02:02.623Z,8.23
2019-01-04T14:04:31.059Z,7.87
2019-01-04T14:07:00.356Z,8.93
2019-01-04T14:09:28.807Z,8.50
2019-01-04T14:11:57.330Z,7.67
2019-01-04T14:14:25.786Z,12.20
2019-01-04T14:16:54.298Z,7.53
2019-01-04T14:19:22.752Z,8.37
2019-01-04T14:21:51.193Z,8.47
2019-01-04T14:24:19.643Z,8.97
2019-01-04T14:26:48.095Z,8.10
2019-01-04T14:29:16.529Z,8.40
2019-01-04T14:31:44.981Z,9.30
2019-01-04T14:34:13.408Z,8.93
2019-01-04T14:36:41.862Z,9.13
2019-01-04T14:39:10.314Z,8.97
2019-01-04T14:41:38.761Z,7.87
2019-01-04T14:44:07.194Z,9.30
2019-01-04T14:46:35.706Z,8.57
2019-01-04T14:49:04.144Z,13.10
2019-01-04T14:51:32.586Z,13.37
2019-01-04T14:54:01.043Z,9.97
2019-01-04T14:56:29.476Z,9.60
2019-01-04T14:58:57.924Z,9.83
2019-01-04T15:01:26.359Z,8.50
2019-01-04T15:03:54.826Z,10.27
2019-01-04T15:06:23.327Z,7.23
2019-01-04T15:08:51.782Z,7.67
2019-01-04T15:11:20.234Z,7.80
2019-01-04T15:13:48.685Z,6.67
2019-01-04T15:16:17.125Z,5.80
2019-01-04T15:18:45.574Z,5.47
2019-01-04T15:21:14.011Z,5.47
2019-01-04T15:23:42.456Z,6.73
2019-01-04T15:26:10.923Z,7.53
2019-01-04T15:28:39.393Z,8.87
2019-01-04T15:31:07.831Z,7.40
2019-01-04T15:33:36.290Z,6.93
2019-01-04T15:36:04.782Z,9.03
2019-01-04T15:38:36.324Z,8.37
2019-01-04T15:41:03.443Z,6.10
2019-01-04T15:43:31.916Z,7.00
2019-01-04T15:46:00.351Z,8.83
2019-01-04T15:48:28.810Z,6.77
2019-01-04T15:50:57.279Z,9.23
2019-01-04T15:53:25.748Z,7.07
2019-01-04T15:55:54.172Z,8.40
2019-01-04T15:58:22.696Z,7.20
2019-01-04T16:00:51.140Z,8.70
2019-01-04T16:03:19.593Z,7.17
2019-01-04T16:05:48.029Z,8.03
2019-01-04T16:08:16.478Z,10.00
2019-01-04T16:10:44.920Z,6.70
2019-01-04T16:13:13.397Z,8.53
2019-01-04T16:15:41.842Z,8.40
2019-01-04T16:18:10.264Z,8.80
2019-01-04T16:20:38.728Z,10.43
2019-01-04T16:23:07.166Z,9.53
2019-01-04T16:25:35.626Z,9.27
2019-01-04T16:28:04.067Z,12.20
2019-01-04T16:30:32.536Z,10.93
2019-01-04T16:33:00.981Z,10.43
2019-01-04T16:35:29.540Z,11.73
2019-01-04T16:37:57.994Z,12.20
2019-01-04T16:40:26.596Z,11.30
2019-01-04T16:42:55.088Z,13.00
2019-01-04T16:45:23.573Z,11.17
2019-01-04T16:47:52.043Z,14.07
2019-01-04T16:50:20.622Z,9.50
2019-01-04T16:52:49.099Z,9.97
2019-01-04T16:55:17.547Z,11.90
2019-01-04T16:57:46.286Z,10.80
2019-01-04T17:00:14.803Z,11.93
2019-01-04T17:02:43.277Z,10.70
2019-01-04T17:05:11.817Z,11.37
2019-01-04T17:07:40.344Z,12.90
2019-01-04T17:10:08.832Z,15.30
2019-01-04T17:12:37.266Z,11.47
2019-01-04T17:15:06.527Z,12.77
2019-01-04T17:17:35.058Z,11.10
2019-01-04T17:20:03.740Z,10.30
2019-01-04T17:22:32.254Z,13.53
2019-01-04T17:25:00.721Z,10.23
2019-01-04T17:27:29.200Z,12.33
2019-01-04T17:29:57.648Z,10.00
2019-01-04T17:32:26.099Z,12.40
2019-01-04T17:34:54.538Z,13.97
2019-01-04T17:37:23.002Z,9.90
2019-01-04T17:39:51.425Z,12.27
2019-01-04T17:42:19.896Z,10.60
2019-01-04T17:44:48.347Z,11.67
2019-01-04T17:47:16.798Z,14.33
2019-01-04T17:49:45.236Z,11.70
2019-01-04T17:52:13.716Z,11.30
2019-01-04T17:54:42.145Z,8.43
2019-01-04T17:57:10.595Z,11.83
2019-01-04T17:59:39.033Z,14.73
2019-01-04T18:02:07.482Z,11.10
2019-01-04T18:04:35.927Z,13.40
2019-01-04T18:07:04.389Z,12.73
2019-01-04T18:09:32.815Z,11.77
2019-01-04T18:12:01.274Z,10.83
2019-01-04T18:14:29.733Z,13.63
2019-01-04T18:16:58.173Z,11.27
2019-01-04T18:19:26.621Z,11.03
2019-01-04T18:21:55.064Z,12.47
2019-01-04T18:24:23.514Z,10.10
2019-01-04T18:26:51.957Z,13.23
2019-01-04T18:29:20.410Z,8.17
2019-01-04T18:31:48.849Z,12.60
2019-01-04T18:34:17.332Z,11.47
2019-01-04T18:36:45.762Z,12.27
2019-01-04T18:39:14.224Z,11.57
2019-01-04T18:41:42.682Z,12.00
2019-01-04T18:44:11.152Z,11.80
2019-01-04T18:46:39.581Z,13.10
2019-01-04T18:49:08.043Z,12.90
2019-01-04T18:51:36.479Z,13.03
2019-01-04T18:54:04.941Z,11.60
2019-01-04T18:56:33.365Z,9.70
2019-01-04T18:59:01.878Z,12.43
2019-01-04T19:01:30.344Z,12.27
2019-01-04T19:03:58.820Z,10.37
2019-01-04T19:06:31.171Z,11.27
2019-01-04T19:08:57.453Z,12.43
2019-01-04T19:11:25.902Z,9.67
2019-01-04T19:13:54.357Z,12.27
2019-01-04T19:16:22.837Z,11.60
2019-01-04T19:18:51.338Z,9.03
2019-01-04T19:21:19.774Z,10.77
2019-01-04T19:23:48.228Z,16.27
2019-01-04T19:26:16.661Z,15.63
2019-01-04T19:28:45.130Z,13.40
2019-01-04T19:31:13.573Z,15.67
2019-01-04T19:33:42.017Z,10.20
2019-01-04T19:36:10.470Z,14.37
2019-01-04T19:38:38.894Z,12.03
2019-01-04T19:41:07.346Z,14.43
2019-01-04T19:43:35.778Z,12.03
2019-01-04T19:46:04.230Z,15.60
2019-01-04T19:48:32.670Z,12.87
2019-01-04T19:51:01.125Z,10.87
2019-01-04T19:53:29.558Z,13.07
2019-01-04T19:55:58.026Z,13.20
2019-01-04T19:58:26.458Z,13.30
2019-01-04T20:00:54.921Z,17.77
2019-01-04T20:03:23.342Z,12.87
2019-01-04T20:06:08.512Z,16.53
2019-01-04T20:09:02.600Z,14.10
2019-01-04T20:12:02.805Z,16.20
2019-01-04T20:14:41.742Z,13.87
2019-01-04T20:17:14.567Z,16.13
2019-01-04T20:20:02.206Z,12.13
2019-01-04T20:22:41.323Z,17.00
2019-01-04T20:25:14.111Z,14.87
2019-01-04T20:27:46.875Z,12.17
2019-01-04T20:30:22.636Z,15.73
2019-01-04T20:33:08.719Z,14.13
2019-01-04T20:35:41.828Z,16.23
2019-01-04T20:38:14.877Z,14.07
2019-01-04T20:40:45.055Z,10.20
2019-01-04T20:43:15.204Z,12.53
2019-01-04T20:45:51.059Z,14.73
2019-01-04T20:48:23.812Z,13.07
2019-01-04T20:50:53.925Z,13.63
2019-01-04T20:53:24.007Z,14.00
2019-01-04T20:56:09.040Z,10.67
2019-01-04T20:58:45.067Z,14.03
2019-01-04T21:01:15.166Z,10.60
2019-01-04T21:04:01.558Z,13.67
2019-01-04T21:06:47.977Z,13.27
2019-01-04T21:09:24.026Z,14.63
2019-01-04T21:11:54.122Z,13.67
2019-01-04T21:14:36.255Z,13.73
2019-01-04T21:17:06.359Z,19.73
2019-01-04T21:19:39.096Z,11.90
2019-01-04T21:22:26.970Z,17.90
2019-01-04T21:25:12.102Z,19.13
2019-01-04T21:27:44.855Z,19.30
2019-01-04T21:30:14.976Z,16.90
2019-01-04T21:32:54.005Z,16.60
2019-01-04T21:35:40.341Z,18.77
2019-01-04T21:38:26.977Z,24.00
2019-01-04T21:41:09.117Z,17.80
2019-01-04T21:43:39.230Z,22.20
2019-01-04T21:46:18.086Z,21.10
2019-01-04T21:49:04.242Z,16.53
2019-01-04T21:51:50.542Z,27.47
2019-01-04T21:54:32.659Z,19.40
2019-01-04T21:57:08.626Z,18.03
2019-01-04T21:59:41.417Z,20.97
2019-01-04T22:02:23.458Z,17.90
2019-01-04T22:04:56.234Z,18.93
2019-01-04T22:07:42.307Z,16.00
2019-01-04T22:10:12.409Z,16.53
2019-01-04T22:12:42.485Z,17.80
2019-01-04T22:15:18.489Z,15.43
2019-01-04T22:18:04.892Z,17.60
2019-01-04T22:20:49.546Z,19.90
2019-01-04T22:23:22.563Z,17.43
2019-01-04T22:26:08.930Z,18.20
2019-01-04T22:28:44.778Z,15.77
2019-01-04T22:31:30.829Z,18.53
2019-01-04T22:34:19.028Z,18.47
2019-01-04T22:37:05.187Z,23.20
2019-01-04T22:39:35.286Z,17.83
2019-01-04T22:42:21.717Z,14.13
2019-01-04T22:45:08.139Z,14.03
2019-01-04T22:47:44.255Z,13.87
2019-01-04T22:50:32.213Z,16.60
2019-01-04T22:53:14.178Z,15.00
2019-01-04T22:55:52.976Z,13.83
2019-01-04T22:58:31.859Z,13.40
2019-01-04T23:01:13.693Z,14.13
2019-01-04T23:03:55.769Z,16.77
2019-01-04T23:06:25.871Z,17.77
2019-01-04T23:09:04.961Z,14.53
2019-01-04T23:11:40.855Z,17.67
2019-01-04T23:14:13.622Z,15.97
2019-01-04T23:16:52.682Z,17.63
2019-01-04T23:19:22.745Z,13.63
2019-01-04T23:22:11.553Z,12.53
2019-01-04T23:24:50.571Z,15.07
2019-01-04T23:27:35.458Z,14.47
2019-01-04T23:30:12.371Z,12.97
2019-01-04T23:32:42.462Z,13.43
2019-01-04T23:35:30.668Z,13.03
2019-01-04T23:38:00.742Z,14.00
2019-01-04T23:40:36.918Z,11.57
2019-01-04T23:43:09.685Z,12.70
2019-01-04T23:45:48.875Z,12.80
2019-01-04T23:48:24.754Z,12.97
2019-01-04T23:50:57.547Z,12.60
2019-01-04T23:53:36.435Z,11.27
2019-01-04T23:56:22.850Z,13.63
2019-01-04T23:58:58.878Z,12.63
